Time;durP1;ratioP1;P1;durP2;ratioP2;P2;SDS_P1;SDS_P2;PMS_P1;PMS_P2;Temp;Humidity;BMP_temperature;BMP_pressure;BME280_temperature;BME280_humidity;BME280_pressure;Samples;Min_cycle;Max_cycle;Signal;HPM_P1;HPM_P2
2022/03/29 00:02:09;;;;;;;;;42.00;35.75;;;;;14.54;49.72;100775.69;5009477;28;45374;-82
2022/03/29 00:04:34;;;;;;;;;42.00;36.25;;;;;14.63;50.84;100790.84;5008315;28;45319;-83
2022/03/29 00:07:00;;;;;;;;;45.50;36.50;;;;;14.57;51.15;100773.09;5009664;28;45168;-83
2022/03/29 00:09:25;;;;;;;;;46.75;38.75;;;;;14.22;50.34;100721.25;5005576;28;45089;-80
2022/03/29 00:11:51;;;;;;;;;44.25;36.25;;;;;14.55;50.59;100776.59;5008660;28;45141;-83
2022/03/29 00:14:16;;;;;;;;;45.50;36.00;;;;;14.45;50.96;100747.28;5008600;28;45330;-82
2022/03/29 00:16:42;;;;;;;;;40.50;34.75;;;;;14.42;51.32;100743.69;5008822;28;45349;-82
2022/03/29 00:19:08;;;;;;;;;46.50;37.50;;;;;14.29;50.34;100715.25;5008564;28;44986;-82
2022/03/29 00:21:33;;;;;;;;;43.75;37.25;;;;;14.57;51.04;100764.28;5009184;28;45223;-82
2022/03/29 00:23:59;;;;;;;;;42.25;34.25;;;;;14.70;50.94;100787.47;5009166;28;45217;-82
2022/03/29 00:26:24;;;;;;;;;39.75;33.75;;;;;14.45;50.77;100742.00;5008507;28;45357;-82
2022/03/29 00:28:50;;;;;;;;;45.25;35.75;;;;;14.40;51.08;100730.44;5009021;28;45101;-83
2022/03/29 00:31:17;;;;;;;;;47.50;36.50;;;;;14.66;50.39;100770.63;5008617;28;45563;-83
2022/03/29 00:33:43;;;;;;;;;42.75;36.00;;;;;14.37;50.43;100718.91;5008255;28;45258;-82
2022/03/29 00:36:08;;;;;;;;;47.00;38.00;;;;;14.50;49.49;100723.59;5009062;28;45208;-83
2022/03/29 00:38:34;;;;;;;;;43.75;37.25;;;;;14.44;49.52;100705.84;5008672;28;45123;-82
2022/03/29 00:41:00;;;;;;;;;46.50;37.00;;;;;14.56;49.87;100714.88;5008424;28;45090;-82
2022/03/29 00:43:26;;;;;;;;;48.50;36.00;;;;;14.59;50.18;100714.97;5008482;28;45795;-83
2022/03/29 00:45:52;;;;;;;;;41.25;34.50;;;;;14.80;49.47;100746.19;5009087;28;45055;-80
2022/03/29 00:48:17;;;;;;;;;44.75;34.25;;;;;14.53;50.37;100697.22;5008019;28;45709;-83
2022/03/29 00:50:44;;;;;;;;;45.75;35.50;;;;;14.64;49.62;100710.63;4990438;28;45096;-82
2022/03/29 00:53:10;;;;;;;;;44.00;36.25;;;;;14.71;49.20;100729.28;5008898;28;45638;-83
2022/03/29 00:55:36;;;;;;;;;46.75;36.25;;;;;14.42;50.12;100670.53;5007850;28;45742;-82
2022/03/29 00:58:03;;;;;;;;;41.25;36.25;;;;;14.53;50.52;100691.94;5008212;28;45037;-82
2022/03/29 01:00:31;;;;;;;;;38.25;34.00;;;;;14.41;49.75;100670.50;5008092;28;45310;-83
2022/03/29 01:02:58;;;;;;;;;48.00;38.75;;;;;14.46;50.24;100671.47;5007792;28;45844;-81
2022/03/29 01:05:24;;;;;;;;;43.00;34.00;;;;;14.51;50.67;100675.13;5007913;28;45541;-82
2022/03/29 01:07:49;;;;;;;;;46.75;37.75;;;;;14.39;49.68;100659.03;5008455;28;45194;-82
2022/03/29 01:10:15;;;;;;;;;45.50;37.00;;;;;14.45;50.90;100665.31;5007260;28;45150;-82
2022/03/29 01:12:40;;;;;;;;;49.50;39.50;;;;;14.29;49.86;100641.22;5008128;28;46053;-83
2022/03/29 01:15:08;;;;;;;;;48.75;37.25;;;;;14.39;50.39;100654.63;5007828;28;45250;-82
2022/03/29 01:17:41;;;;;;;;;45.75;37.25;;;;;14.45;50.56;100667.06;5007847;28;45051;-82
2022/03/29 01:20:20;;;;;;;;;41.25;34.25;;;;;14.62;50.57;100691.19;5008096;28;45165;-82
2022/03/29 01:22:47;;;;;;;;;47.50;37.00;;;;;14.42;49.74;100659.94;5008435;28;45394;-81
2022/03/29 01:25:19;;;;;;;;;46.00;36.75;;;;;14.65;48.34;100701.84;5006982;28;45249;-82
2022/03/29 01:27:46;;;;;;;;;46.00;37.00;;;;;14.49;48.19;100655.72;4990303;28;45404;-82
2022/03/29 01:30:12;;;;;;;;;48.50;38.50;;;;;14.38;47.88;100637.00;5007815;28;45121;-83
2022/03/29 01:32:44;;;;;;;;;47.00;36.50;;;;;14.58;49.14;100657.59;5007264;28;45379;-83
2022/03/29 01:35:11;;;;;;;;;43.00;34.25;;;;;14.45;48.96;100644.16;4989622;28;45130;-82
2022/03/29 01:37:36;;;;;;;;;47.75;37.75;;;;;14.22;48.75;100597.91;5008170;28;45241;-83
2022/03/29 01:40:13;;;;;;;;;42.25;36.25;;;;;14.64;49.50;100669.19;5006891;28;45059;-83
2022/03/29 01:43:00;;;;;;;;;47.00;37.75;;;;;14.68;49.53;100672.78;5007382;28;45966;-82
2022/03/29 01:45:30;;;;;;;;;40.25;34.25;;;;;14.48;49.78;100637.16;5006151;28;45212;-82
2022/03/29 01:47:55;;;;;;;;;43.50;35.50;;;;;14.38;49.76;100618.50;5007991;28;45279;-83
2022/03/29 01:50:21;;;;;;;;;43.25;35.50;;;;;14.56;49.48;100647.00;5007720;28;45392;-83
2022/03/29 01:52:48;;;;;;;;;45.00;37.75;;;;;14.58;49.01;100649.66;5007896;28;45555;-82
2022/03/29 01:55:16;;;;;;;;;44.00;35.50;;;;;14.20;49.57;100581.16;5005883;28;45617;-82
2022/03/29 01:57:42;;;;;;;;;50.75;39.00;;;;;13.85;48.98;100511.84;5007476;28;45449;-83
2022/03/29 02:02:55;;;;;;;;;47.00;37.00;;;;;14.63;49.35;100637.41;5006371;28;45060;-83
2022/03/29 02:05:21;;;;;;;;;44.50;34.50;;;;;14.62;50.06;100636.53;5007374;28;45345;-81
2022/03/29 02:07:47;;;;;;;;;47.50;36.00;;;;;13.95;48.90;100516.41;5009562;28;45411;-82
2022/03/29 02:10:20;;;;;;;;;46.25;38.00;;;;;14.61;49.41;100624.16;4997991;28;45370;-82
2022/03/29 02:12:48;;;;;;;;;43.25;35.50;;;;;14.27;48.76;100559.22;5010849;28;45568;-81
2022/03/29 02:15:14;;;;;;;;;45.50;36.00;;;;;14.57;49.08;100606.47;4992230;28;45667;-82
2022/03/29 02:17:41;;;;;;;;;43.00;36.00;;;;;14.51;49.27;100597.56;5010903;28;45208;-83
2022/03/29 02:20:07;;;;;;;;;46.25;36.00;;;;;14.26;48.88;100554.81;5010627;28;45082;-82
2022/03/29 02:22:34;;;;;;;;;41.50;34.00;;;;;14.30;49.52;100551.38;5010676;28;45089;-83
2022/03/29 02:24:59;;;;;;;;;43.00;36.00;;;;;14.38;49.85;100562.03;5009743;28;45526;-82
2022/03/29 02:27:24;;;;;;;;;41.25;34.00;;;;;14.27;49.10;100537.19;5010578;28;45539;-83
2022/03/29 02:29:50;;;;;;;;;48.50;38.50;;;;;14.55;49.13;100586.16;5025676;28;44963;-83
2022/03/29 02:32:15;;;;;;;;;42.33;35.67;;;;;14.26;49.42;100527.50;5009940;28;46419;-83
2022/03/29 02:34:41;;;;;;;;;40.00;34.00;;;;;14.57;49.77;100589.72;5010725;28;45213;-83
2022/03/29 02:37:06;;;;;;;;;42.50;36.25;;;;;14.29;49.72;100527.56;5010852;28;45319;-83
2022/03/29 02:39:31;;;;;;;;;45.67;38.00;;;;;14.26;49.49;100522.22;5009751;28;45026;-82
2022/03/29 02:41:57;;;;;;;;;44.00;35.67;;;;;14.39;48.82;100559.44;5010732;28;45088;-82
2022/03/29 02:44:22;;;;;;;;;43.75;35.25;;;;;14.54;47.88;100587.03;5009736;28;45717;-83
2022/03/29 02:46:48;;;;;;;;;41.50;35.00;;;;;14.38;47.51;100560.31;5010765;28;45190;-83
2022/03/29 02:49:13;;;;;;;;;40.50;33.25;;;;;14.40;48.64;100550.63;5009927;28;45105;-83
2022/03/29 02:51:38;;;;;;;;;43.00;36.50;;;;;14.33;48.60;100527.59;5010152;28;45327;-83
2022/03/29 02:54:04;;;;;;;;;42.50;35.00;;;;;14.32;48.60;100523.19;5010036;28;45237;-83
2022/03/29 02:56:29;;;;;;;;;32.75;31.00;;;;;14.39;48.76;100543.59;5009410;28;45055;-83
2022/03/29 02:58:55;;;;;;;;;42.50;36.00;;;;;14.40;48.05;100539.19;4991922;28;45245;-82
2022/03/29 03:01:20;;;;;;;;;47.50;36.75;;;;;14.35;49.40;100540.88;5007822;28;45327;-82
2022/03/29 03:03:45;;;;;;;;;36.25;32.50;;;;;14.26;49.39;100531.03;5010116;28;45454;-82
2022/03/29 03:06:11;;;;;;;;;40.67;33.33;;;;;14.40;49.49;100537.41;4991895;28;45357;-82
2022/03/29 03:08:36;;;;;;;;;38.25;33.50;;;;;14.20;49.63;100508.03;5008963;28;45062;-82
2022/03/29 03:11:01;;;;;;;;;34.25;32.75;;;;;14.18;49.34;100506.22;5007659;28;45430;-81
2022/03/29 03:13:27;;;;;;;;;38.75;32.25;;;;;14.19;49.70;100503.63;5009537;28;45267;-81
2022/03/29 03:15:52;;;;;;;;;44.25;35.25;;;;;14.32;50.18;100528.47;5009563;28;45051;-82
2022/03/29 03:18:18;;;;;;;;;34.75;30.75;;;;;14.19;49.70;100500.97;5009856;28;45134;-84
2022/03/29 03:20:43;;;;;;;;;41.75;35.00;;;;;14.22;49.73;100510.69;5008697;28;46153;-82
2022/03/29 03:23:09;;;;;;;;;38.00;33.25;;;;;14.29;50.72;100520.50;5009349;28;45102;-83
2022/03/29 03:25:34;;;;;;;;;38.75;34.25;;;;;14.25;49.50;100509.84;5009126;28;45196;-83
2022/03/29 03:28:00;;;;;;;;;40.50;31.75;;;;;14.14;49.48;100491.19;5010234;28;45346;-84
2022/03/29 03:30:25;;;;;;;;;32.50;27.00;;;;;14.08;49.17;100483.13;5008689;28;45332;-82
2022/03/29 03:32:53;;;;;;;;;37.75;33.25;;;;;14.37;50.28;100529.44;5008297;28;45481;-83
2022/03/29 03:35:19;;;;;;;;;39.25;32.50;;;;;13.90;50.19;100460.84;5009428;28;45253;-83
2022/03/29 03:37:44;;;;;;;;;40.00;33.75;;;;;13.88;49.80;100467.84;5009033;28;45266;-82
2022/03/29 03:40:11;;;;;;;;;36.50;33.00;;;;;14.24;50.20;100523.94;5009157;28;45547;-82
2022/03/29 03:42:37;;;;;;;;;38.00;34.00;;;;;13.84;50.43;100458.13;5009437;28;45211;-83
2022/03/29 03:45:05;;;;;;;;;39.00;33.50;;;;;14.15;50.49;100501.78;5009096;28;44988;-83
2022/03/29 03:47:30;;;;;;;;;45.75;36.25;;;;;13.97;50.40;100482.09;5009139;28;45456;-82
2022/03/29 03:49:56;;;;;;;;;44.75;35.00;;;;;13.76;51.11;100448.28;5009272;28;46032;-82
2022/03/29 03:52:21;;;;;;;;;46.25;37.25;;;;;13.93;50.58;100482.03;5008389;28;45093;-82
2022/03/29 03:54:47;;;;;;;;;43.50;34.25;;;;;13.98;51.39;100481.22;5009609;28;45299;-82
2022/03/29 03:57:12;;;;;;;;;41.25;36.50;;;;;14.00;50.64;100483.03;5008582;28;45257;-81
2022/03/29 03:59:38;;;;;;;;;44.50;34.50;;;;;13.88;50.64;100459.91;5008609;28;45644;-82
2022/03/29 04:02:03;;;;;;;;;40.00;34.25;;;;;13.95;51.18;100466.22;5009530;28;45223;-83
2022/03/29 04:04:29;;;;;;;;;44.75;36.75;;;;;14.02;51.12;100476.00;5009599;28;45268;-82
2022/03/29 04:06:55;;;;;;;;;41.75;35.25;;;;;13.97;50.94;100460.94;5009800;28;45405;-83
2022/03/29 04:09:20;;;;;;;;;43.00;35.75;;;;;14.08;51.40;100491.06;5008475;28;45471;-82
2022/03/29 04:11:46;;;;;;;;;41.75;35.00;;;;;14.13;50.71;100492.03;5007808;28;45195;-82
2022/03/29 04:14:12;;;;;;;;;39.50;34.25;;;;;14.00;51.50;100468.94;5008169;28;45148;-80
2022/03/29 04:16:37;;;;;;;;;38.50;31.75;;;;;14.06;51.33;100469.91;5009165;28;45043;-82
2022/03/29 04:19:03;;;;;;;;;39.75;34.00;;;;;13.89;49.35;100429.09;5009259;28;45296;-83
2022/03/29 04:21:29;;;;;;;;;43.00;35.00;;;;;14.02;49.72;100451.34;5008324;28;45488;-83
2022/03/29 04:23:54;;;;;;;;;26.50;25.75;;;;;13.89;49.92;100437.94;5009288;28;45232;-81
2022/03/29 04:26:19;;;;;;;;;39.00;34.33;;;;;14.19;50.83;100478.94;5023760;28;45292;-83
2022/03/29 04:28:45;;;;;;;;;36.00;31.75;;;;;14.16;50.06;100476.22;5008392;28;46387;-82
2022/03/29 04:31:10;;;;;;;;;35.00;31.00;;;;;14.07;50.89;100462.88;5008866;28;45169;-82
2022/03/29 04:33:37;;;;;;;;;35.00;31.50;;;;;14.22;50.26;100489.53;5006604;28;45395;-82
2022/03/29 04:36:06;;;;;;;;;34.50;32.00;;;;;14.15;50.42;100474.47;5000281;28;45158;-80
2022/03/29 04:38:31;;;;;;;;;36.75;33.00;;;;;13.98;50.54;100449.50;4989177;28;46045;-81
2022/03/29 04:40:59;;;;;;;;;35.75;32.50;;;;;13.85;49.89;100430.84;4983907;28;45596;-81
2022/03/29 04:43:24;;;;;;;;;34.75;29.50;;;;;13.82;50.53;100420.19;4985289;28;45651;-82
2022/03/29 04:45:50;;;;;;;;;30.25;28.50;;;;;14.09;50.42;100469.09;4990277;28;45558;-83
2022/03/29 04:48:15;;;;;;;;;33.75;32.25;;;;;13.90;49.99;100445.00;4983465;28;45476;-81
2022/03/29 04:50:41;;;;;;;;;41.25;36.50;;;;;14.19;47.70;100497.44;4994370;28;45614;-82
2022/03/29 04:53:07;;;;;;;;;33.50;30.00;;;;;13.93;47.08;100447.69;5008213;28;45249;-82
2022/03/29 04:55:32;;;;;;;;;32.75;29.75;;;;;13.63;47.06;100394.34;5003533;28;45352;-82
2022/03/29 04:58:00;;;;;;;;;33.50;30.00;;;;;13.99;47.84;100430.13;5005147;28;45390;-84
2022/03/29 05:00:25;;;;;;;;;29.25;26.50;;;;;14.04;48.42;100444.31;4997042;28;45761;-81
2022/03/29 05:02:51;;;;;;;;;35.75;30.00;;;;;13.90;48.63;100425.63;4997011;28;45562;-81
2022/03/29 05:05:16;;;;;;;;;32.75;30.00;;;;;14.12;49.24;100461.19;4996977;28;45249;-82
2022/03/29 05:07:42;;;;;;;;;38.25;31.75;;;;;14.11;48.17;100451.50;5000044;28;45407;-82
2022/03/29 05:10:09;;;;;;;;;35.25;30.75;;;;;14.28;48.70;100480.81;4997696;28;45564;-83
2022/03/29 05:12:48;;;;;;;;;35.50;32.50;;;;;14.30;49.22;100493.19;4998242;28;45420;-82
2022/03/29 05:15:16;;;;;;;;;36.75;32.75;;;;;14.03;48.82;100437.25;4974910;28;45280;-81
2022/03/29 05:17:42;;;;;;;;;37.75;29.75;;;;;14.29;48.92;100480.84;4998797;28;45335;-82
2022/03/29 05:20:10;;;;;;;;;32.75;29.75;;;;;14.28;49.14;100479.06;4998410;28;45549;-82
2022/03/29 05:22:52;;;;;;;;;26.00;25.00;;;;;14.05;49.41;100438.19;4992453;28;45037;-83
2022/03/29 05:25:20;;;;;;;;;35.50;28.75;;;;;14.05;47.69;100432.91;4998311;28;45185;-82
2022/03/29 05:27:46;;;;;;;;;34.75;31.00;;;;;14.00;47.10;100410.81;4996076;28;45302;-82
2022/03/29 05:30:12;;;;;;;;;34.50;29.75;;;;;14.31;48.27;100454.44;5020711;28;45322;-82
2022/03/29 05:32:38;;;;;;;;;33.00;30.00;;;;;14.33;48.15;100465.91;5006650;28;45328;-83
2022/03/29 05:35:07;;;;;;;;;35.75;31.25;;;;;14.10;47.59;100423.28;5006791;28;45154;-82
2022/03/29 05:37:32;;;;;;;;;30.75;29.75;;;;;13.88;48.95;100377.13;5004885;28;45311;-82
2022/03/29 05:39:57;;;;;;;;;29.50;27.75;;;;;14.03;48.01;100402.91;5001173;28;45213;-80
2022/03/29 05:42:23;;;;;;;;;38.33;31.33;;;;;13.78;48.96;100360.25;5007541;28;45054;-84
2022/03/29 05:44:48;;;;;;;;;30.50;28.75;;;;;13.98;47.33;100397.53;5008447;28;45078;-83
2022/03/29 05:49:57;;;;;;;;;31.50;28.75;;;;;14.24;46.71;100432.31;5011471;28;45463;-83
2022/03/29 05:52:23;;;;;;;;;27.50;25.50;;;;;14.22;46.93;100428.75;5011263;28;45182;-83
2022/03/29 05:54:49;;;;;;;;;29.75;27.75;;;;;14.31;46.44;100457.06;5011563;28;45152;-83
2022/03/29 05:57:16;;;;;;;;;31.00;28.00;;;;;14.32;47.08;100456.19;5009741;28;46204;-83
2022/03/29 05:59:42;;;;;;;;;27.00;24.50;;;;;14.39;47.57;100466.91;4999828;28;45659;-82
2022/03/29 06:02:08;;;;;;;;;32.50;28.25;;;;;14.46;47.62;100474.03;5011603;28;45308;-83
2022/03/29 06:04:34;;;;;;;;;33.75;30.75;;;;;14.29;48.09;100451.78;5008220;28;45272;-82
2022/03/29 06:06:59;;;;;;;;;34.00;28.50;;;;;14.21;47.64;100440.19;5010762;28;45711;-82
2022/03/29 06:09:25;;;;;;;;;28.25;26.50;;;;;14.31;47.82;100460.59;5010439;28;45262;-81
2022/03/29 06:11:50;;;;;;;;;38.25;30.25;;;;;14.33;48.18;100466.78;4992593;28;45277;-82
2022/03/29 06:14:16;;;;;;;;;35.00;31.00;;;;;14.22;47.02;100439.31;5007392;28;45484;-80
2022/03/29 06:16:42;;;;;;;;;32.50;30.75;;;;;14.51;46.06;100489.13;5008192;28;45266;-81
2022/03/29 06:19:11;;;;;;;;;32.50;30.00;;;;;14.32;45.83;100446.50;5006198;28;45486;-82
2022/03/29 06:21:37;;;;;;;;;30.25;27.25;;;;;14.30;45.75;100436.81;5009789;28;45210;-82
2022/03/29 06:24:04;;;;;;;;;34.25;30.75;;;;;14.30;46.09;100439.44;5006750;28;45567;-82
2022/03/29 06:26:30;;;;;;;;;31.00;26.75;;;;;14.30;45.55;100447.38;5010867;28;45314;-82
2022/03/29 06:28:56;;;;;;;;;32.50;28.75;;;;;14.33;46.69;100453.56;5009871;28;45598;-82
2022/03/29 06:31:21;;;;;;;;;26.50;24.75;;;;;14.54;46.00;100473.31;4991642;28;45233;-82
2022/03/29 06:33:47;;;;;;;;;36.00;31.50;;;;;14.43;47.03;100454.59;5010956;28;45199;-82
2022/03/29 06:36:13;;;;;;;;;27.25;26.00;;;;;14.55;47.22;100469.81;5009951;28;45593;-82
2022/03/29 06:38:38;;;;;;;;;24.75;21.75;;;;;14.37;47.62;100436.88;4990463;28;45111;-82
2022/03/29 06:41:03;;;;;;;;;30.00;28.00;;;;;14.54;47.74;100462.75;5009780;28;45193;-81
2022/03/29 06:43:29;;;;;;;;;27.50;26.25;;;;;14.51;48.86;100447.69;5008888;28;46150;-82
2022/03/29 06:45:55;;;;;;;;;30.50;29.00;;;;;14.76;47.55;100496.53;5010506;28;45584;-80
2022/03/29 06:48:24;;;;;;;;;35.50;31.00;;;;;14.79;46.66;100480.72;5010007;28;45558;-82
2022/03/29 06:50:49;;;;;;;;;32.25;29.50;;;;;14.52;46.48;100427.44;5005166;28;45257;-81
2022/03/29 06:53:14;;;;;;;;;34.00;30.33;;;;;14.77;46.65;100469.19;5007649;28;45069;-81
2022/03/29 06:55:40;;;;;;;;;36.75;31.50;;;;;14.73;46.11;100463.84;5004698;28;45907;-82
2022/03/29 06:58:06;;;;;;;;;35.50;31.50;;;;;14.78;46.11;100459.50;5005450;28;45432;-81
2022/03/29 07:00:31;;;;;;;;;33.50;28.25;;;;;14.60;46.02;100409.91;5009823;28;45170;-80
2022/03/29 07:02:56;;;;;;;;;29.00;27.00;;;;;14.93;46.24;100452.66;5010242;28;45075;-82
2022/03/29 07:05:22;;;;;;;;;31.50;27.00;;;;;14.96;46.12;100467.69;5007697;28;45696;-80
2022/03/29 07:07:47;;;;;;;;;32.67;29.00;;;;;14.81;46.25;100426.03;5008146;28;45003;-80
2022/03/29 07:13:01;;;;;;;;;28.75;27.50;;;;;15.12;46.38;100468.75;5006496;28;45129;-81
2022/03/29 07:15:27;;;;;;;;;35.50;31.75;;;;;14.93;45.30;100433.25;5009151;28;45473;-81
2022/03/29 07:17:53;;;;;;;;;30.25;28.50;;;;;15.10;45.71;100462.56;5010192;28;45629;-80
2022/03/29 07:20:19;;;;;;;;;35.75;32.00;;;;;14.77;46.08;100394.25;5009075;28;45154;-82
2022/03/29 07:22:45;;;;;;;;;29.50;27.75;;;;;15.17;45.35;100456.44;5010213;28;45172;-81
2022/03/29 07:25:11;;;;;;;;;29.25;27.25;;;;;14.86;45.81;100400.53;5006974;28;45794;-81
2022/03/29 07:27:37;;;;;;;;;30.75;29.75;;;;;14.94;45.59;100427.97;5006293;28;45368;-81
2022/03/29 07:30:05;;;;;;;;;36.75;31.25;;;;;14.95;45.27;100426.22;5009434;28;45106;-82
2022/03/29 07:32:30;;;;;;;;;35.25;31.25;;;;;15.20;45.29;100464.44;5007858;28;45145;-81
2022/03/29 07:34:56;;;;;;;;;25.25;22.00;;;;;15.03;46.00;100421.91;5006295;28;45269;-81
2022/03/29 07:37:23;;;;;;;;;31.50;30.00;;;;;15.37;46.58;100461.97;5009259;28;45454;-81
2022/03/29 07:39:53;;;;;;;;;32.00;30.75;;;;;15.43;46.45;100465.59;5009541;28;45050;-82
2022/03/29 07:42:20;;;;;;;;;33.00;30.00;;;;;15.32;46.68;100430.16;4991421;28;45257;-81
2022/03/29 07:44:45;;;;;;;;;33.00;31.00;;;;;15.38;47.22;100430.22;5009756;28;45422;-81
2022/03/29 07:47:10;;;;;;;;;32.50;30.00;;;;;15.22;47.72;100391.19;5007728;28;45120;-81
2022/03/29 07:49:36;;;;;;;;;38.00;32.00;;;;;15.48;46.78;100426.78;5009494;28;44823;-81
2022/03/29 07:52:02;;;;;;;;;35.25;31.00;;;;;15.24;46.46;100381.53;5007537;28;45330;-80
2022/03/29 07:54:28;;;;;;;;;35.00;31.50;;;;;15.61;45.46;100437.47;5008823;28;45817;-81
2022/03/29 07:56:53;;;;;;;;;35.75;32.25;;;;;15.44;46.43;100401.13;5007419;28;45429;-81
2022/03/29 07:59:19;;;;;;;;;35.00;30.33;;;;;15.45;45.93;100407.31;5008456;28;45071;-81
2022/03/29 08:01:44;;;;;;;;;30.50;26.00;;;;;15.36;45.41;100372.81;5005279;28;45249;-82
2022/03/29 08:04:09;;;;;;;;;35.50;30.00;;;;;15.58;45.74;100414.50;5007975;28;46693;-80
2022/03/29 08:06:35;;;;;;;;;33.00;30.00;;;;;15.54;45.35;100399.47;5008983;28;45180;-80
2022/03/29 08:09:00;;;;;;;;;36.25;32.75;;;;;15.54;44.85;100387.97;5008982;28;45066;-81
2022/03/29 08:11:25;;;;;;;;;35.25;31.00;;;;;15.51;45.10;100372.06;5005875;28;45218;-81
2022/03/29 08:13:51;;;;;;;;;39.67;34.00;;;;;15.60;44.55;100388.03;5007698;28;45875;-80
2022/03/29 08:16:16;;;;;;;;;40.25;32.50;;;;;15.70;44.44;100393.44;5006461;28;45086;-81
2022/03/29 08:18:42;;;;;;;;;39.00;30.75;;;;;15.92;45.65;100421.03;5007448;28;45653;-81
2022/03/29 08:23:52;;;;;;;;;37.00;32.00;;;;;15.80;44.45;100359.97;5006386;28;45434;-81
2022/03/29 08:26:17;;;;;;;;;34.00;31.00;;;;;16.10;44.45;100390.19;5008424;28;45567;-81
2022/03/29 08:28:43;;;;;;;;;33.75;30.75;;;;;16.10;43.83;100375.16;5007443;28;45451;-82
2022/03/29 08:31:08;;;;;;;;;40.00;32.25;;;;;16.11;43.67;100369.03;5008281;28;45092;-82
2022/03/29 08:33:33;;;;;;;;;40.33;33.33;;;;;16.23;44.20;100376.16;5005664;28;45466;-81
2022/03/29 08:35:59;;;;;;;;;35.50;31.75;;;;;16.19;43.76;100359.31;5006584;28;45084;-81
2022/03/29 08:38:26;;;;;;;;;37.33;33.33;;;;;16.12;43.02;100327.47;4990475;28;45190;-80
2022/03/29 08:40:56;;;;;;;;;38.50;32.75;;;;;16.25;44.44;100347.84;5006913;28;45435;-80
2022/03/29 08:43:26;;;;;;;;;38.00;32.75;;;;;16.63;43.49;100398.44;5006860;28;45523;-80
2022/03/29 08:45:52;;;;;;;;;36.25;31.00;;;;;16.67;44.06;100394.94;5009042;28;45450;-81
2022/03/29 08:48:23;;;;;;;;;40.00;32.50;;;;;16.63;43.17;100374.56;5008287;28;45200;-80
2022/03/29 08:50:51;;;;;;;;;41.25;34.00;;;;;16.14;42.90;100281.53;5008830;28;45055;-80
2022/03/29 08:53:20;;;;;;;;;43.00;33.75;;;;;16.67;43.24;100354.25;5008045;28;46003;-81
2022/03/29 08:55:47;;;;;;;;;33.75;30.50;;;;;16.51;42.64;100309.09;4986728;28;45879;-81
2022/03/29 08:58:13;;;;;;;;;42.25;33.75;;;;;16.83;43.01;100353.44;5006135;28;45118;-81
2022/03/29 09:00:38;;;;;;;;;43.50;33.25;;;;;16.92;43.04;100348.16;5006449;28;45221;-80
2022/03/29 09:03:04;;;;;;;;;37.75;32.75;;;;;16.88;42.97;100321.59;5007872;28;45193;-80
2022/03/29 09:05:30;;;;;;;;;36.75;31.50;;;;;17.15;42.80;100347.31;5006785;28;45160;-80
2022/03/29 09:08:01;;;;;;;;;36.50;32.25;;;;;17.19;42.42;100326.09;5009028;28;45339;-80
2022/03/29 09:10:49;;;;;;;;;44.25;35.25;;;;;17.54;42.07;100363.28;5005819;28;45090;-81
2022/03/29 09:13:27;;;;;;;;;41.00;34.00;;;;;17.66;42.20;100362.38;5008047;28;48163;-81
2022/03/29 09:15:55;;;;;;;;;40.50;33.25;;;;;17.75;41.95;100353.56;5005410;28;44964;-81
2022/03/29 09:18:21;;;;;;;;;35.50;29.50;;;;;17.77;41.83;100338.47;5009747;28;45282;-80
2022/03/29 09:21:09;;;;;;;;;39.00;32.75;;;;;17.93;42.14;100342.00;5012069;28;45133;-81
2022/03/29 09:23:35;;;;;;;;;38.75;34.25;;;;;17.96;41.70;100342.88;5009700;28;45333;-80
2022/03/29 09:26:02;;;;;;;;;35.50;31.25;;;;;17.88;42.32;100309.22;5011405;28;45521;-81
2022/03/29 09:28:36;;;;;;;;;37.75;32.25;;;;;18.15;40.82;100342.84;5006261;28;45421;-80
2022/03/29 09:31:20;;;;;;;;;43.50;34.75;;;;;17.90;40.74;100299.47;5011921;28;45118;-81
2022/03/29 09:33:46;;;;;;;;;39.75;33.50;;;;;17.99;41.68;100310.97;5010281;28;45907;-81
2022/03/29 09:36:14;;;;;;;;;43.00;33.75;;;;;18.28;40.99;100349.91;5010449;28;45334;-81
2022/03/29 09:38:42;;;;;;;;;38.50;31.75;;;;;18.32;40.66;100341.00;4993337;28;45071;-79
2022/03/29 09:41:28;;;;;;;;;41.50;33.50;;;;;18.22;40.78;100318.00;5005917;28;45120;-81
2022/03/29 09:44:08;;;;;;;;;40.00;33.50;;;;;18.44;40.13;100340.97;5011137;28;45851;-81
2022/03/29 09:46:54;;;;;;;;;41.00;34.50;;;;;18.47;40.13;100337.41;5009507;28;45577;-80
2022/03/29 09:49:22;;;;;;;;;38.75;32.75;;;;;18.53;40.35;100348.94;5011399;28;45129;-80
2022/03/29 09:52:06;;;;;;;;;38.25;33.25;;;;;18.52;40.52;100325.88;5011821;28;45228;-80
2022/03/29 09:54:32;;;;;;;;;42.75;33.75;;;;;18.63;39.92;100327.59;5005943;28;45746;-81
2022/03/29 09:56:57;;;;;;;;;38.00;32.00;;;;;18.29;39.77;100251.47;5008293;28;45079;-80
2022/03/29 09:59:23;;;;;;;;;42.25;34.75;;;;;18.69;39.75;100309.84;5006158;28;45475;-80
2022/03/29 10:01:55;;;;;;;;;42.25;33.25;;;;;18.83;40.01;100307.09;5011633;28;44976;-81
2022/03/29 10:04:23;;;;;;;;;42.75;34.00;;;;;18.79;38.72;100279.59;5009147;28;45319;-81
2022/03/29 10:06:54;;;;;;;;;37.50;32.25;;;;;19.05;38.82;100308.72;5011135;28;45402;-81
2022/03/29 10:09:27;;;;;;;;;38.50;33.00;;;;;18.97;39.93;100273.28;5008277;28;45066;-81
2022/03/29 10:11:58;;;;;;;;;42.50;36.25;;;;;19.11;39.11;100261.63;5010828;28;45070;-80
2022/03/29 10:14:26;;;;;;;;;39.25;32.75;;;;;19.33;38.62;100295.19;5009982;28;46230;-80
2022/03/29 10:16:54;;;;;;;;;43.75;32.75;;;;;19.33;38.65;100290.75;5010183;28;45493;-80
2022/03/29 10:19:20;;;;;;;;;42.00;33.75;;;;;19.14;38.97;100251.81;5009659;28;45145;-82
2022/03/29 10:21:46;;;;;;;;;40.50;32.75;;;;;19.43;39.05;100293.34;5010823;28;45059;-81
2022/03/29 10:24:16;;;;;;;;;37.75;32.50;;;;;19.45;39.28;100280.88;5009499;28;45457;-80
2022/03/29 10:26:43;;;;;;;;;41.00;31.75;;;;;19.56;39.14;100289.66;5009773;28;45299;-81
2022/03/29 10:29:09;;;;;;;;;46.25;37.00;;;;;19.57;38.56;100281.66;5010090;28;45216;-81
2022/03/29 10:31:39;;;;;;;;;40.00;33.50;;;;;19.40;38.49;100245.38;5010323;28;45172;-80
2022/03/29 10:34:28;;;;;;;;;39.50;34.25;;;;;19.70;38.18;100279.75;5010630;28;45180;-80
2022/03/29 10:37:14;;;;;;;;;43.50;34.75;;;;;19.77;38.52;100277.94;5010572;28;45428;-81
2022/03/29 10:39:46;;;;;;;;;46.25;36.00;;;;;19.50;38.27;100218.59;5009498;28;45401;-81
2022/03/29 10:42:24;;;;;;;;;47.50;37.75;;;;;19.89;38.16;100272.44;5010217;28;45233;-82
2022/03/29 10:45:09;;;;;;;;;48.25;38.50;;;;;19.97;38.21;100272.38;5010166;28;45441;-81
2022/03/29 10:47:34;;;;;;;;;47.00;37.00;;;;;19.81;38.38;100232.56;5010023;28;45291;-82
2022/03/29 10:50:01;;;;;;;;;38.50;34.75;;;;;20.02;37.86;100250.09;5010536;28;45123;-82
2022/03/29 10:52:29;;;;;;;;;45.00;36.25;;;;;20.16;37.87;100260.59;5010293;28;45060;-82
2022/03/29 10:55:14;;;;;;;;;42.75;36.00;;;;;20.32;37.63;100270.16;5009745;28;45642;-81
2022/03/29 10:57:39;;;;;;;;;33.75;30.75;;;;;20.02;38.05;100199.38;5010119;28;45184;-83
2022/03/29 11:00:10;;;;;;;;;47.50;39.00;;;;;20.51;37.57;100264.63;4981325;28;45409;-81
2022/03/29 11:02:36;;;;;;;;;39.75;32.50;;;;;20.48;37.55;100245.97;5008139;28;45068;-82
2022/03/29 11:05:08;;;;;;;;;40.75;35.00;;;;;20.66;36.86;100263.53;5009870;28;45474;-80
2022/03/29 11:08:00;;;;;;;;;43.75;37.25;;;;;20.73;37.52;100258.03;5010024;28;45622;-81
2022/03/29 11:10:42;;;;;;;;;46.50;36.25;;;;;20.54;37.56;100213.81;4998319;28;45153;-81
2022/03/29 11:13:28;;;;;;;;;36.00;33.00;;;;;20.87;37.16;100250.72;5010303;28;45353;-80
2022/03/29 11:15:57;;;;;;;;;46.75;37.50;;;;;20.85;36.88;100224.94;5007971;28;45605;-80
2022/03/29 11:18:32;;;;;;;;;47.75;38.50;;;;;21.09;36.67;100240.59;5009520;28;45279;-80
2022/03/29 11:21:02;;;;;;;;;47.25;37.50;;;;;20.87;36.40;100186.59;5010693;28;45141;-81
2022/03/29 11:23:31;;;;;;;;;45.75;36.50;;;;;21.33;35.90;100241.13;5009344;28;45138;-81